sensor_id;sensor_type;location;lat;lon;timestamp;P1;durP1;ratioP1;P2;durP2;ratioP2
55053;SDS011;40954;45.668;18.980;2022-12-04T00:00:08;29.65;;;17.60;;
55053;SDS011;40954;45.668;18.980;2022-12-04T00:02:34;26.83;;;14.90;;
55053;SDS011;40954;45.668;18.980;2022-12-04T00:05:01;21.95;;;14.57;;
55053;SDS011;40954;45.668;18.980;2022-12-04T00:07:27;23.38;;;13.70;;
55053;SDS011;40954;45.668;18.980;2022-12-04T00:09:53;22.52;;;13.88;;
55053;SDS011;40954;45.668;18.980;2022-12-04T00:12:19;19.65;;;13.00;;
55053;SDS011;40954;45.668;18.980;2022-12-04T00:14:45;20.25;;;12.60;;
55053;SDS011;40954;45.668;18.980;2022-12-04T00:17:11;20.77;;;13.38;;
55053;SDS011;40954;45.668;18.980;2022-12-04T00:19:37;18.92;;;12.57;;
55053;SDS011;40954;45.668;18.980;2022-12-04T00:22:04;21.67;;;12.88;;
55053;SDS011;40954;45.668;18.980;2022-12-04T00:24:30;21.92;;;12.15;;
55053;SDS011;40954;45.668;18.980;2022-12-04T00:26:56;17.95;;;12.25;;
55053;SDS011;40954;45.668;18.980;2022-12-04T00:29:22;19.52;;;13.05;;
55053;SDS011;40954;45.668;18.980;2022-12-04T00:31:48;19.02;;;12.35;;
55053;SDS011;40954;45.668;18.980;2022-12-04T00:34:14;18.00;;;12.38;;
55053;SDS011;40954;45.668;18.980;2022-12-04T00:36:40;20.08;;;12.02;;
55053;SDS011;40954;45.668;18.980;2022-12-04T00:39:06;16.55;;;11.60;;
55053;SDS011;40954;45.668;18.980;2022-12-04T00:41:32;18.27;;;11.68;;
55053;SDS011;40954;45.668;18.980;2022-12-04T00:44:01;20.50;;;11.77;;
55053;SDS011;40954;45.668;18.980;2022-12-04T00:46:28;16.95;;;11.65;;
55053;SDS011;40954;45.668;18.980;2022-12-04T00:48:54;18.38;;;11.95;;
55053;SDS011;40954;45.668;18.980;2022-12-04T00:51:22;22.00;;;14.07;;
55053;SDS011;40954;45.668;18.980;2022-12-04T00:53:48;28.40;;;15.93;;
55053;SDS011;40954;45.668;18.980;2022-12-04T00:56:17;25.95;;;14.48;;
55053;SDS011;40954;45.668;18.980;2022-12-04T00:58:43;19.88;;;13.05;;
55053;SDS011;40954;45.668;18.980;2022-12-04T01:01:10;17.55;;;12.02;;
55053;SDS011;40954;45.668;18.980;2022-12-04T01:03:37;21.17;;;13.45;;
55053;SDS011;40954;45.668;18.980;2022-12-04T01:06:04;19.45;;;12.40;;
55053;SDS011;40954;45.668;18.980;2022-12-04T01:08:30;20.85;;;14.05;;
55053;SDS011;40954;45.668;18.980;2022-12-04T01:10:57;20.42;;;12.77;;
55053;SDS011;40954;45.668;18.980;2022-12-04T01:13:23;16.70;;;11.38;;
55053;SDS011;40954;45.668;18.980;2022-12-04T01:15:49;18.80;;;11.65;;
55053;SDS011;40954;45.668;18.980;2022-12-04T01:18:18;16.70;;;11.00;;
55053;SDS011;40954;45.668;18.980;2022-12-04T01:20:48;13.68;;;10.18;;
55053;SDS011;40954;45.668;18.980;2022-12-04T01:23:14;17.77;;;10.32;;
55053;SDS011;40954;45.668;18.980;2022-12-04T01:25:48;15.18;;;10.50;;
55053;SDS011;40954;45.668;18.980;2022-12-04T01:28:14;18.65;;;10.70;;
55053;SDS011;40954;45.668;18.980;2022-12-04T01:30:40;15.52;;;9.63;;
55053;SDS011;40954;45.668;18.980;2022-12-04T01:33:07;14.68;;;10.02;;
55053;SDS011;40954;45.668;18.980;2022-12-04T01:35:33;15.68;;;10.93;;
55053;SDS011;40954;45.668;18.980;2022-12-04T01:37:59;14.95;;;10.25;;
55053;SDS011;40954;45.668;18.980;2022-12-04T01:40:25;16.85;;;10.25;;
55053;SDS011;40954;45.668;18.980;2022-12-04T01:42:58;15.48;;;10.82;;
55053;SDS011;40954;45.668;18.980;2022-12-04T01:45:36;16.33;;;10.60;;
55053;SDS011;40954;45.668;18.980;2022-12-04T01:48:14;16.48;;;10.40;;
55053;SDS011;40954;45.668;18.980;2022-12-04T01:50:41;15.23;;;10.48;;
55053;SDS011;40954;45.668;18.980;2022-12-04T01:53:08;15.32;;;10.50;;
55053;SDS011;40954;45.668;18.980;2022-12-04T01:55:34;16.50;;;11.02;;
55053;SDS011;40954;45.668;18.980;2022-12-04T01:58:00;15.10;;;10.50;;
55053;SDS011;40954;45.668;18.980;2022-12-04T02:00:27;11.80;;;8.75;;
55053;SDS011;40954;45.668;18.980;2022-12-04T02:02:53;12.23;;;8.95;;
55053;SDS011;40954;45.668;18.980;2022-12-04T02:05:20;18.85;;;9.63;;
55053;SDS011;40954;45.668;18.980;2022-12-04T02:07:47;26.83;;;19.80;;
55053;SDS011;40954;45.668;18.980;2022-12-04T02:10:14;34.80;;;26.50;;
55053;SDS011;40954;45.668;18.980;2022-12-04T02:20:20;15.98;;;9.80;;
55053;SDS011;40954;45.668;18.980;2022-12-04T02:28:07;12.75;;;8.95;;
55053;SDS011;40954;45.668;18.980;2022-12-04T02:30:36;13.68;;;9.07;;
55053;SDS011;40954;45.668;18.980;2022-12-04T02:33:22;13.00;;;9.20;;
55053;SDS011;40954;45.668;18.980;2022-12-04T02:36:23;11.40;;;8.68;;
55053;SDS011;40954;45.668;18.980;2022-12-04T02:43:50;12.88;;;9.07;;
55053;SDS011;40954;45.668;18.980;2022-12-04T02:46:21;12.68;;;8.48;;
55053;SDS011;40954;45.668;18.980;2022-12-04T02:48:50;14.48;;;9.32;;
55053;SDS011;40954;45.668;18.980;2022-12-04T02:51:18;15.65;;;9.77;;
55053;SDS011;40954;45.668;18.980;2022-12-04T02:53:58;14.30;;;9.07;;
55053;SDS011;40954;45.668;18.980;2022-12-04T02:56:29;12.68;;;8.10;;
55053;SDS011;40954;45.668;18.980;2022-12-04T02:58:57;11.95;;;8.68;;
55053;SDS011;40954;45.668;18.980;2022-12-04T03:01:28;12.68;;;8.85;;
55053;SDS011;40954;45.668;18.980;2022-12-04T03:06:26;13.80;;;8.65;;
55053;SDS011;40954;45.668;18.980;2022-12-04T03:08:56;11.43;;;9.20;;
55053;SDS011;40954;45.668;18.980;2022-12-04T03:11:25;15.10;;;9.73;;
55053;SDS011;40954;45.668;18.980;2022-12-04T03:13:57;13.27;;;8.85;;
55053;SDS011;40954;45.668;18.980;2022-12-04T03:16:26;13.48;;;9.25;;
55053;SDS011;40954;45.668;18.980;2022-12-04T03:18:58;11.05;;;8.52;;
55053;SDS011;40954;45.668;18.980;2022-12-04T03:21:27;10.30;;;7.85;;
55053;SDS011;40954;45.668;18.980;2022-12-04T03:23:56;12.98;;;8.35;;
55053;SDS011;40954;45.668;18.980;2022-12-04T03:28:52;13.77;;;8.73;;
55053;SDS011;40954;45.668;18.980;2022-12-04T03:31:23;10.90;;;7.57;;
55053;SDS011;40954;45.668;18.980;2022-12-04T03:33:50;12.13;;;8.10;;
55053;SDS011;40954;45.668;18.980;2022-12-04T03:36:24;13.50;;;9.10;;
55053;SDS011;40954;45.668;18.980;2022-12-04T03:39:00;12.48;;;8.57;;
55053;SDS011;40954;45.668;18.980;2022-12-04T03:43:59;11.30;;;7.35;;
55053;SDS011;40954;45.668;18.980;2022-12-04T03:46:34;10.15;;;6.82;;
55053;SDS011;40954;45.668;18.980;2022-12-04T03:51:50;10.80;;;7.15;;
55053;SDS011;40954;45.668;18.980;2022-12-04T03:54:18;9.07;;;6.75;;
55053;SDS011;40954;45.668;18.980;2022-12-04T03:56:50;9.93;;;6.63;;
55053;SDS011;40954;45.668;18.980;2022-12-04T03:59:19;10.02;;;7.07;;
55053;SDS011;40954;45.668;18.980;2022-12-04T04:01:47;9.82;;;6.85;;
55053;SDS011;40954;45.668;18.980;2022-12-04T04:04:17;8.77;;;6.60;;
55053;SDS011;40954;45.668;18.980;2022-12-04T04:06:45;8.73;;;6.25;;
55053;SDS011;40954;45.668;18.980;2022-12-04T04:09:15;8.10;;;6.07;;
55053;SDS011;40954;45.668;18.980;2022-12-04T04:11:53;8.25;;;6.10;;
55053;SDS011;40954;45.668;18.980;2022-12-04T04:14:23;10.75;;;7.03;;
55053;SDS011;40954;45.668;18.980;2022-12-04T04:17:11;9.48;;;6.50;;
55053;SDS011;40954;45.668;18.980;2022-12-04T04:19:58;9.65;;;6.85;;
55053;SDS011;40954;45.668;18.980;2022-12-04T04:22:44;8.88;;;6.32;;
55053;SDS011;40954;45.668;18.980;2022-12-04T04:25:31;8.23;;;6.40;;
55053;SDS011;40954;45.668;18.980;2022-12-04T04:27:58;7.97;;;6.03;;
55053;SDS011;40954;45.668;18.980;2022-12-04T04:30:24;7.28;;;5.30;;
55053;SDS011;40954;45.668;18.980;2022-12-04T04:32:54;7.93;;;6.05;;
55053;SDS011;40954;45.668;18.980;2022-12-04T04:35:36;8.48;;;5.57;;
55053;SDS011;40954;45.668;18.980;2022-12-04T04:38:07;7.97;;;5.88;;
55053;SDS011;40954;45.668;18.980;2022-12-04T04:48:37;10.27;;;7.13;;
55053;SDS011;40954;45.668;18.980;2022-12-04T04:51:04;9.85;;;6.50;;
55053;SDS011;40954;45.668;18.980;2022-12-04T04:53:53;8.02;;;5.85;;
55053;SDS011;40954;45.668;18.980;2022-12-04T04:56:16;7.90;;;5.63;;
55053;SDS011;40954;45.668;18.980;2022-12-04T04:58:42;6.80;;;5.43;;
55053;SDS011;40954;45.668;18.980;2022-12-04T05:01:10;8.77;;;5.85;;
55053;SDS011;40954;45.668;18.980;2022-12-04T05:03:37;7.05;;;5.13;;
55053;SDS011;40954;45.668;18.980;2022-12-04T05:06:03;7.95;;;5.25;;
55053;SDS011;40954;45.668;18.980;2022-12-04T05:08:30;7.07;;;5.15;;
55053;SDS011;40954;45.668;18.980;2022-12-04T05:10:56;5.90;;;4.85;;
55053;SDS011;40954;45.668;18.980;2022-12-04T05:13:22;6.38;;;5.00;;
55053;SDS011;40954;45.668;18.980;2022-12-04T05:15:58;6.55;;;5.05;;
55053;SDS011;40954;45.668;18.980;2022-12-04T05:18:25;7.57;;;5.43;;
55053;SDS011;40954;45.668;18.980;2022-12-04T05:20:51;7.18;;;5.50;;
55053;SDS011;40954;45.668;18.980;2022-12-04T05:23:17;8.55;;;5.90;;
55053;SDS011;40954;45.668;18.980;2022-12-04T05:25:43;6.65;;;5.13;;
55053;SDS011;40954;45.668;18.980;2022-12-04T05:28:09;7.80;;;5.47;;
55053;SDS011;40954;45.668;18.980;2022-12-04T05:30:35;7.88;;;5.50;;
55053;SDS011;40954;45.668;18.980;2022-12-04T05:33:01;8.35;;;5.38;;
55053;SDS011;40954;45.668;18.980;2022-12-04T05:35:27;9.43;;;5.60;;
55053;SDS011;40954;45.668;18.980;2022-12-04T05:37:53;9.50;;;6.35;;
55053;SDS011;40954;45.668;18.980;2022-12-04T05:40:19;8.00;;;5.72;;
55053;SDS011;40954;45.668;18.980;2022-12-04T05:42:45;8.23;;;5.70;;
55053;SDS011;40954;45.668;18.980;2022-12-04T05:45:12;8.90;;;5.47;;
55053;SDS011;40954;45.668;18.980;2022-12-04T05:47:38;7.20;;;5.20;;
55053;SDS011;40954;45.668;18.980;2022-12-04T05:50:05;6.63;;;4.85;;
55053;SDS011;40954;45.668;18.980;2022-12-04T05:52:31;8.82;;;5.00;;
55053;SDS011;40954;45.668;18.980;2022-12-04T05:54:57;7.55;;;5.43;;
55053;SDS011;40954;45.668;18.980;2022-12-04T05:57:23;5.93;;;5.07;;
55053;SDS011;40954;45.668;18.980;2022-12-04T05:59:49;6.40;;;4.35;;
55053;SDS011;40954;45.668;18.980;2022-12-04T06:02:15;5.82;;;4.60;;
55053;SDS011;40954;45.668;18.980;2022-12-04T06:04:41;5.80;;;4.30;;
55053;SDS011;40954;45.668;18.980;2022-12-04T06:07:08;5.80;;;4.47;;
55053;SDS011;40954;45.668;18.980;2022-12-04T06:09:35;6.32;;;4.50;;
55053;SDS011;40954;45.668;18.980;2022-12-04T06:12:01;6.35;;;4.80;;
55053;SDS011;40954;45.668;18.980;2022-12-04T06:14:27;8.23;;;4.88;;
55053;SDS011;40954;45.668;18.980;2022-12-04T06:16:53;5.20;;;4.60;;
55053;SDS011;40954;45.668;18.980;2022-12-04T06:19:19;5.60;;;4.70;;
55053;SDS011;40954;45.668;18.980;2022-12-04T06:21:49;5.75;;;4.60;;
55053;SDS011;40954;45.668;18.980;2022-12-04T06:24:16;8.20;;;5.18;;
55053;SDS011;40954;45.668;18.980;2022-12-04T06:26:43;9.27;;;6.25;;
55053;SDS011;40954;45.668;18.980;2022-12-04T06:29:10;8.10;;;6.00;;
55053;SDS011;40954;45.668;18.980;2022-12-04T06:31:37;5.63;;;4.70;;
55053;SDS011;40954;45.668;18.980;2022-12-04T06:34:03;6.82;;;5.20;;
55053;SDS011;40954;45.668;18.980;2022-12-04T06:36:29;6.57;;;5.10;;
55053;SDS011;40954;45.668;18.980;2022-12-04T06:38:56;8.85;;;5.57;;
55053;SDS011;40954;45.668;18.980;2022-12-04T06:41:22;6.93;;;5.00;;
55053;SDS011;40954;45.668;18.980;2022-12-04T06:43:49;7.45;;;4.70;;
55053;SDS011;40954;45.668;18.980;2022-12-04T06:46:19;5.60;;;4.30;;
55053;SDS011;40954;45.668;18.980;2022-12-04T06:48:45;8.77;;;5.50;;
55053;SDS011;40954;45.668;18.980;2022-12-04T06:51:13;7.57;;;5.45;;
55053;SDS011;40954;45.668;18.980;2022-12-04T06:53:39;8.13;;;6.00;;
55053;SDS011;40954;45.668;18.980;2022-12-04T06:56:06;9.77;;;6.95;;
55053;SDS011;40954;45.668;18.980;2022-12-04T06:58:33;8.98;;;5.72;;
55053;SDS011;40954;45.668;18.980;2022-12-04T07:01:04;8.13;;;6.07;;
55053;SDS011;40954;45.668;18.980;2022-12-04T07:03:30;8.18;;;5.57;;
55053;SDS011;40954;45.668;18.980;2022-12-04T07:05:56;8.55;;;5.53;;
55053;SDS011;40954;45.668;18.980;2022-12-04T07:08:22;5.63;;;4.43;;
55053;SDS011;40954;45.668;18.980;2022-12-04T07:10:48;5.85;;;4.50;;
55053;SDS011;40954;45.668;18.980;2022-12-04T07:13:14;7.55;;;5.28;;
55053;SDS011;40954;45.668;18.980;2022-12-04T07:15:40;9.57;;;6.60;;
55053;SDS011;40954;45.668;18.980;2022-12-04T07:18:06;6.97;;;5.32;;
55053;SDS011;40954;45.668;18.980;2022-12-04T07:20:32;9.85;;;6.65;;
55053;SDS011;40954;45.668;18.980;2022-12-04T07:22:58;8.43;;;6.90;;
55053;SDS011;40954;45.668;18.980;2022-12-04T07:25:25;9.00;;;6.43;;
55053;SDS011;40954;45.668;18.980;2022-12-04T07:27:53;11.00;;;6.80;;
55053;SDS011;40954;45.668;18.980;2022-12-04T07:30:19;9.70;;;6.75;;
55053;SDS011;40954;45.668;18.980;2022-12-04T07:32:45;12.07;;;6.68;;
55053;SDS011;40954;45.668;18.980;2022-12-04T07:35:11;9.23;;;5.90;;
55053;SDS011;40954;45.668;18.980;2022-12-04T07:37:37;7.40;;;5.25;;
55053;SDS011;40954;45.668;18.980;2022-12-04T07:40:04;6.40;;;5.32;;
55053;SDS011;40954;45.668;18.980;2022-12-04T07:42:30;7.18;;;5.28;;
55053;SDS011;40954;45.668;18.980;2022-12-04T07:44:56;8.07;;;5.28;;
55053;SDS011;40954;45.668;18.980;2022-12-04T07:47:22;6.72;;;5.63;;
55053;SDS011;40954;45.668;18.980;2022-12-04T07:49:48;8.98;;;6.28;;
55053;SDS011;40954;45.668;18.980;2022-12-04T07:52:14;6.45;;;4.85;;
55053;SDS011;40954;45.668;18.980;2022-12-04T07:54:40;7.13;;;5.28;;
55053;SDS011;40954;45.668;18.980;2022-12-04T07:57:06;9.75;;;6.38;;
55053;SDS011;40954;45.668;18.980;2022-12-04T07:59:32;11.32;;;6.78;;
55053;SDS011;40954;45.668;18.980;2022-12-04T08:01:58;12.57;;;7.53;;
55053;SDS011;40954;45.668;18.980;2022-12-04T08:04:24;8.18;;;5.53;;
55053;SDS011;40954;45.668;18.980;2022-12-04T08:06:50;10.50;;;7.45;;
55053;SDS011;40954;45.668;18.980;2022-12-04T08:09:16;12.10;;;6.70;;
55053;SDS011;40954;45.668;18.980;2022-12-04T08:11:42;9.88;;;6.63;;
55053;SDS011;40954;45.668;18.980;2022-12-04T08:14:10;8.60;;;6.25;;
55053;SDS011;40954;45.668;18.980;2022-12-04T08:16:37;9.15;;;6.28;;
55053;SDS011;40954;45.668;18.980;2022-12-04T08:19:03;7.22;;;5.72;;
55053;SDS011;40954;45.668;18.980;2022-12-04T08:21:29;10.95;;;7.00;;
55053;SDS011;40954;45.668;18.980;2022-12-04T08:23:56;10.90;;;6.88;;
55053;SDS011;40954;45.668;18.980;2022-12-04T08:26:23;7.53;;;6.45;;
55053;SDS011;40954;45.668;18.980;2022-12-04T08:28:53;10.02;;;7.28;;
55053;SDS011;40954;45.668;18.980;2022-12-04T08:31:20;13.15;;;8.05;;
55053;SDS011;40954;45.668;18.980;2022-12-04T08:33:47;10.13;;;7.47;;
55053;SDS011;40954;45.668;18.980;2022-12-04T08:36:14;11.32;;;8.10;;
55053;SDS011;40954;45.668;18.980;2022-12-04T08:38:40;10.13;;;7.03;;
55053;SDS011;40954;45.668;18.980;2022-12-04T08:41:09;9.93;;;6.60;;
55053;SDS011;40954;45.668;18.980;2022-12-04T08:43:35;11.48;;;7.13;;
55053;SDS011;40954;45.668;18.980;2022-12-04T08:46:02;9.38;;;6.85;;
55053;SDS011;40954;45.668;18.980;2022-12-04T08:48:29;9.50;;;6.22;;
55053;SDS011;40954;45.668;18.980;2022-12-04T08:50:55;11.27;;;6.55;;
55053;SDS011;40954;45.668;18.980;2022-12-04T08:53:22;9.85;;;6.70;;
55053;SDS011;40954;45.668;18.980;2022-12-04T08:55:48;8.25;;;6.20;;
55053;SDS011;40954;45.668;18.980;2022-12-04T08:58:14;7.43;;;5.97;;
55053;SDS011;40954;45.668;18.980;2022-12-04T09:00:40;9.13;;;7.18;;
55053;SDS011;40954;45.668;18.980;2022-12-04T09:03:07;10.98;;;7.57;;
55053;SDS011;40954;45.668;18.980;2022-12-04T09:05:34;10.10;;;7.53;;
55053;SDS011;40954;45.668;18.980;2022-12-04T09:08:00;10.95;;;7.50;;
55053;SDS011;40954;45.668;18.980;2022-12-04T09:10:26;10.38;;;6.53;;
55053;SDS011;40954;45.668;18.980;2022-12-04T09:12:52;13.05;;;8.68;;
55053;SDS011;40954;45.668;18.980;2022-12-04T09:15:18;15.05;;;9.32;;
55053;SDS011;40954;45.668;18.980;2022-12-04T09:17:44;14.18;;;8.65;;
55053;SDS011;40954;45.668;18.980;2022-12-04T09:20:10;12.05;;;7.88;;
55053;SDS011;40954;45.668;18.980;2022-12-04T09:22:36;18.05;;;11.00;;
55053;SDS011;40954;45.668;18.980;2022-12-04T09:25:03;14.38;;;9.80;;
55053;SDS011;40954;45.668;18.980;2022-12-04T09:27:30;8.52;;;5.88;;
55053;SDS011;40954;45.668;18.980;2022-12-04T09:30:00;9.13;;;6.65;;
55053;SDS011;40954;45.668;18.980;2022-12-04T09:32:26;11.90;;;7.38;;
55053;SDS011;40954;45.668;18.980;2022-12-04T09:34:52;7.93;;;6.32;;
55053;SDS011;40954;45.668;18.980;2022-12-04T09:37:18;15.07;;;9.15;;
55053;SDS011;40954;45.668;18.980;2022-12-04T09:39:44;15.43;;;10.05;;
55053;SDS011;40954;45.668;18.980;2022-12-04T09:44:52;10.32;;;7.13;;
55053;SDS011;40954;45.668;18.980;2022-12-04T09:47:28;11.35;;;7.03;;
55053;SDS011;40954;45.668;18.980;2022-12-04T09:50:00;11.82;;;7.72;;
55053;SDS011;40954;45.668;18.980;2022-12-04T09:54:55;17.35;;;9.95;;
55053;SDS011;40954;45.668;18.980;2022-12-04T09:57:43;10.77;;;7.22;;
55053;SDS011;40954;45.668;18.980;2022-12-04T10:00:10;10.32;;;7.50;;
55053;SDS011;40954;45.668;18.980;2022-12-04T10:02:38;9.07;;;6.68;;
55053;SDS011;40954;45.668;18.980;2022-12-04T10:05:05;11.98;;;8.13;;
55053;SDS011;40954;45.668;18.980;2022-12-04T10:12:52;14.93;;;9.68;;
55053;SDS011;40954;45.668;18.980;2022-12-04T10:15:31;15.70;;;10.27;;
55053;SDS011;40954;45.668;18.980;2022-12-04T10:23:06;16.15;;;11.45;;
55053;SDS011;40954;45.668;18.980;2022-12-04T10:25:37;14.07;;;9.95;;
55053;SDS011;40954;45.668;18.980;2022-12-04T10:30:31;21.55;;;11.80;;
55053;SDS011;40954;45.668;18.980;2022-12-04T10:33:03;18.65;;;12.18;;
55053;SDS011;40954;45.668;18.980;2022-12-04T10:35:36;33.60;;;22.27;;
55053;SDS011;40954;45.668;18.980;2022-12-04T10:38:03;14.18;;;11.25;;
55053;SDS011;40954;45.668;18.980;2022-12-04T10:40:32;17.90;;;13.32;;
55053;SDS011;40954;45.668;18.980;2022-12-04T10:43:04;13.88;;;9.60;;
55053;SDS011;40954;45.668;18.980;2022-12-04T10:45:34;9.60;;;8.55;;
55053;SDS011;40954;45.668;18.980;2022-12-04T10:48:00;12.15;;;9.23;;
55053;SDS011;40954;45.668;18.980;2022-12-04T10:50:26;11.63;;;8.70;;
55053;SDS011;40954;45.668;18.980;2022-12-04T10:52:52;12.32;;;8.07;;
55053;SDS011;40954;45.668;18.980;2022-12-04T10:55:28;12.50;;;9.48;;
55053;SDS011;40954;45.668;18.980;2022-12-04T10:57:55;15.02;;;9.55;;
55053;SDS011;40954;45.668;18.980;2022-12-04T11:02:51;11.80;;;8.00;;
55053;SDS011;40954;45.668;18.980;2022-12-04T11:07:50;12.00;;;9.38;;
55053;SDS011;40954;45.668;18.980;2022-12-04T11:12:52;11.52;;;8.00;;
55053;SDS011;40954;45.668;18.980;2022-12-04T11:15:18;15.77;;;9.93;;
55053;SDS011;40954;45.668;18.980;2022-12-04T11:17:44;23.30;;;14.18;;
55053;SDS011;40954;45.668;18.980;2022-12-04T11:20:17;14.55;;;10.27;;
55053;SDS011;40954;45.668;18.980;2022-12-04T11:22:51;13.13;;;10.35;;
55053;SDS011;40954;45.668;18.980;2022-12-04T11:25:19;13.85;;;11.13;;
55053;SDS011;40954;45.668;18.980;2022-12-04T11:27:47;19.00;;;13.68;;
55053;SDS011;40954;45.668;18.980;2022-12-04T11:30:14;15.07;;;10.60;;
55053;SDS011;40954;45.668;18.980;2022-12-04T11:32:42;15.90;;;11.32;;
55053;SDS011;40954;45.668;18.980;2022-12-04T11:35:13;18.02;;;11.82;;
55053;SDS011;40954;45.668;18.980;2022-12-04T11:37:41;16.88;;;11.57;;
55053;SDS011;40954;45.668;18.980;2022-12-04T11:40:16;14.20;;;10.23;;
55053;SDS011;40954;45.668;18.980;2022-12-04T11:42:42;12.15;;;8.35;;
55053;SDS011;40954;45.668;18.980;2022-12-04T11:45:19;12.27;;;8.90;;
55053;SDS011;40954;45.668;18.980;2022-12-04T11:48:19;12.75;;;9.50;;
55053;SDS011;40954;45.668;18.980;2022-12-04T11:50:40;11.52;;;9.60;;
55053;SDS011;40954;45.668;18.980;2022-12-04T11:55:48;14.27;;;10.02;;
55053;SDS011;40954;45.668;18.980;2022-12-04T11:58:25;13.55;;;10.43;;
55053;SDS011;40954;45.668;18.980;2022-12-04T12:01:12;10.85;;;8.25;;
55053;SDS011;40954;45.668;18.980;2022-12-04T12:03:43;16.73;;;10.68;;
55053;SDS011;40954;45.668;18.980;2022-12-04T12:06:17;14.20;;;9.40;;
55053;SDS011;40954;45.668;18.980;2022-12-04T12:11:25;15.05;;;10.98;;
55053;SDS011;40954;45.668;18.980;2022-12-04T12:14:01;15.82;;;12.38;;
55053;SDS011;40954;45.668;18.980;2022-12-04T12:19:10;17.40;;;11.73;;
55053;SDS011;40954;45.668;18.980;2022-12-04T12:25:08;18.73;;;13.18;;
55053;SDS011;40954;45.668;18.980;2022-12-04T12:30:13;33.22;;;19.80;;
55053;SDS011;40954;45.668;18.980;2022-12-04T12:35:23;22.85;;;15.35;;
55053;SDS011;40954;45.668;18.980;2022-12-04T12:37:52;24.13;;;15.35;;
55053;SDS011;40954;45.668;18.980;2022-12-04T12:40:29;25.50;;;16.40;;
55053;SDS011;40954;45.668;18.980;2022-12-04T12:43:02;32.72;;;19.10;;
55053;SDS011;40954;45.668;18.980;2022-12-04T12:45:32;28.27;;;17.58;;
55053;SDS011;40954;45.668;18.980;2022-12-04T12:48:03;26.80;;;15.43;;
55053;SDS011;40954;45.668;18.980;2022-12-04T12:50:34;40.55;;;21.25;;
55053;SDS011;40954;45.668;18.980;2022-12-04T12:53:06;24.75;;;16.88;;
55053;SDS011;40954;45.668;18.980;2022-12-04T12:58:14;17.52;;;11.02;;
55053;SDS011;40954;45.668;18.980;2022-12-04T13:00:59;16.17;;;10.32;;
55053;SDS011;40954;45.668;18.980;2022-12-04T13:03:29;31.38;;;15.98;;
55053;SDS011;40954;45.668;18.980;2022-12-04T13:06:02;22.42;;;13.63;;
55053;SDS011;40954;45.668;18.980;2022-12-04T13:08:34;23.23;;;15.43;;
55053;SDS011;40954;45.668;18.980;2022-12-04T13:13:35;27.80;;;16.02;;
55053;SDS011;40954;45.668;18.980;2022-12-04T13:16:50;18.58;;;12.35;;
55053;SDS011;40954;45.668;18.980;2022-12-04T13:18:54;25.85;;;15.60;;
55053;SDS011;40954;45.668;18.980;2022-12-04T13:21:32;28.70;;;16.77;;
55053;SDS011;40954;45.668;18.980;2022-12-04T13:24:15;24.77;;;14.00;;
55053;SDS011;40954;45.668;18.980;2022-12-04T13:32:02;24.38;;;13.55;;
55053;SDS011;40954;45.668;18.980;2022-12-04T13:34:39;26.45;;;14.50;;
55053;SDS011;40954;45.668;18.980;2022-12-04T13:37:25;33.08;;;18.02;;
55053;SDS011;40954;45.668;18.980;2022-12-04T13:40:22;24.35;;;14.43;;
55053;SDS011;40954;45.668;18.980;2022-12-04T13:42:51;22.55;;;12.13;;
55053;SDS011;40954;45.668;18.980;2022-12-04T13:45:24;23.90;;;12.45;;
55053;SDS011;40954;45.668;18.980;2022-12-04T13:47:58;22.80;;;13.18;;
55053;SDS011;40954;45.668;18.980;2022-12-04T13:50:25;32.28;;;17.42;;
55053;SDS011;40954;45.668;18.980;2022-12-04T13:52:52;52.83;;;25.58;;
55053;SDS011;40954;45.668;18.980;2022-12-04T13:55:22;53.83;;;26.73;;
55053;SDS011;40954;45.668;18.980;2022-12-04T13:57:56;60.30;;;29.58;;
55053;SDS011;40954;45.668;18.980;2022-12-04T14:00:24;60.80;;;31.67;;
55053;SDS011;40954;45.668;18.980;2022-12-04T14:02:52;38.20;;;21.35;;
55053;SDS011;40954;45.668;18.980;2022-12-04T14:05:24;29.88;;;18.35;;
55053;SDS011;40954;45.668;18.980;2022-12-04T14:10:36;25.27;;;15.30;;
55053;SDS011;40954;45.668;18.980;2022-12-04T14:15:33;23.80;;;14.45;;
55053;SDS011;40954;45.668;18.980;2022-12-04T14:18:02;22.42;;;13.43;;
55053;SDS011;40954;45.668;18.980;2022-12-04T14:20:30;19.60;;;12.73;;
55053;SDS011;40954;45.668;18.980;2022-12-04T14:25:55;17.65;;;11.82;;
55053;SDS011;40954;45.668;18.980;2022-12-04T14:31:02;20.60;;;13.00;;
55053;SDS011;40954;45.668;18.980;2022-12-04T14:33:30;16.42;;;10.88;;
55053;SDS011;40954;45.668;18.980;2022-12-04T14:36:00;14.73;;;11.15;;
55053;SDS011;40954;45.668;18.980;2022-12-04T14:38:26;20.30;;;13.38;;
55053;SDS011;40954;45.668;18.980;2022-12-04T14:40:53;21.45;;;14.05;;
55053;SDS011;40954;45.668;18.980;2022-12-04T14:43:22;22.95;;;13.35;;
55053;SDS011;40954;45.668;18.980;2022-12-04T14:59:02;30.98;;;18.33;;
55053;SDS011;40954;45.668;18.980;2022-12-04T15:01:32;27.40;;;17.95;;
55053;SDS011;40954;45.668;18.980;2022-12-04T15:04:00;30.85;;;19.60;;
55053;SDS011;40954;45.668;18.980;2022-12-04T15:06:31;23.73;;;15.82;;
55053;SDS011;40954;45.668;18.980;2022-12-04T15:08:59;21.52;;;13.95;;
55053;SDS011;40954;45.668;18.980;2022-12-04T15:11:44;17.25;;;11.88;;
55053;SDS011;40954;45.668;18.980;2022-12-04T15:14:38;16.25;;;11.80;;
55053;SDS011;40954;45.668;18.980;2022-12-04T15:17:04;19.67;;;12.32;;
55053;SDS011;40954;45.668;18.980;2022-12-04T15:19:30;18.48;;;12.45;;
55053;SDS011;40954;45.668;18.980;2022-12-04T15:21:56;21.63;;;14.18;;
55053;SDS011;40954;45.668;18.980;2022-12-04T15:24:22;18.30;;;12.15;;
55053;SDS011;40954;45.668;18.980;2022-12-04T15:26:49;19.33;;;12.82;;
55053;SDS011;40954;45.668;18.980;2022-12-04T15:29:17;20.83;;;13.45;;
55053;SDS011;40954;45.668;18.980;2022-12-04T15:31:45;20.13;;;13.52;;
55053;SDS011;40954;45.668;18.980;2022-12-04T15:34:16;21.88;;;13.20;;
55053;SDS011;40954;45.668;18.980;2022-12-04T15:39:13;19.92;;;12.50;;
55053;SDS011;40954;45.668;18.980;2022-12-04T15:41:40;18.60;;;12.32;;
55053;SDS011;40954;45.668;18.980;2022-12-04T15:44:20;16.75;;;12.23;;
55053;SDS011;40954;45.668;18.980;2022-12-04T15:46:46;14.80;;;10.70;;
55053;SDS011;40954;45.668;18.980;2022-12-04T15:49:15;14.73;;;11.80;;
55053;SDS011;40954;45.668;18.980;2022-12-04T15:51:43;17.48;;;11.63;;
55053;SDS011;40954;45.668;18.980;2022-12-04T15:54:14;18.55;;;12.85;;
55053;SDS011;40954;45.668;18.980;2022-12-04T15:56:40;18.02;;;10.73;;
55053;SDS011;40954;45.668;18.980;2022-12-04T15:59:12;13.73;;;11.73;;
55053;SDS011;40954;45.668;18.980;2022-12-04T16:01:41;14.60;;;11.07;;
55053;SDS011;40954;45.668;18.980;2022-12-04T16:04:18;21.30;;;13.05;;
55053;SDS011;40954;45.668;18.980;2022-12-04T16:06:45;23.15;;;15.35;;
55053;SDS011;40954;45.668;18.980;2022-12-04T16:11:38;19.75;;;13.07;;
55053;SDS011;40954;45.668;18.980;2022-12-04T16:16:38;20.88;;;13.38;;
55053;SDS011;40954;45.668;18.980;2022-12-04T16:19:10;18.73;;;12.75;;
55053;SDS011;40954;45.668;18.980;2022-12-04T16:21:36;20.70;;;13.18;;
55053;SDS011;40954;45.668;18.980;2022-12-04T16:24:05;21.20;;;12.95;;
55053;SDS011;40954;45.668;18.980;2022-12-04T16:26:32;24.27;;;15.63;;
55053;SDS011;40954;45.668;18.980;2022-12-04T16:28:58;22.90;;;13.93;;
55053;SDS011;40954;45.668;18.980;2022-12-04T16:31:24;19.58;;;12.13;;